NLB weather

Nueva Laguna Blanca, S.A. de C.V. Airport
Palizada, Campeche, Mexico

Public forecast

Using degrees Celsius for public forecast. Weather courtesy of forecast.io.

METAR (pilot weather report)

Report is more than 2 hours old.

Closest report is Ciudad del Carmen International Airport, 31.3 nm (57.9 km) N. Retrieved 2019/06/17 23:46 UTC (2 hours ago):

MMCE 172346Z 03010KT 7SM SCT280 31/27 A2978 RMK SLP081 57010 900 8/008

TAF (pilot weather forecast)

Forecast is more than 6 hours old.

Closest forecast is Ciudad del Carmen International Airport, 31.3 nm (57.9 km) N. Retrieved 2019/06/17 18:45 UTC (7 hours ago):

TAF TAF MMCE 171642Z 1718/1818 14015KT P6SM BKN300 FM172100 04010KT P6SM SCT015 BKN250 TEMPO 1723/1803 VC CB FM180600 12010KT P6SM SKC FM181400 12015KT P6SM SCT020